Terminal Aerodrome Forecast
Issued by NWS

Home | Current Version | Previous Version | Text Only | Print | Product List | Glossary Off
Versions: 1 2 3 4 5 6 7 8 9 10 11 12 13 14 15 16 17

577
FTUS43 KMPX 172321
TAFRNH
TAF
KRNH 172321Z 1800/1824 VRB03KT 4SM BR OVC003
      TEMPO 1800/1803 P6SM NSW SCT005 OVC015
     FM180300 36006KT 5SM BR BKN010
     FM180700 35008KT P6SM BKN008
     FM181000 34009KT P6SM BKN015
     FM181500 33011KT P6SM BKN150
     FM182100 32015G23KT P6SM BKN030
     FM182200 32015G23KT P6SM SCT015=

USA.gov is the U.S. government's official web portal to all federal, state and local government web resources and services.